createdAt,value
2019-06-01T00:00:20.009Z,102055.96
2019-06-01T00:02:56.124Z,102047.22
2019-06-01T00:05:24.030Z,102039.48
2019-06-01T00:07:55.057Z,102044.45
2019-06-01T00:10:26.083Z,102040.37
2019-06-01T00:12:57.102Z,102030.77
2019-06-01T00:15:28.226Z,102026.21
2019-06-01T00:17:59.152Z,102025.21
2019-06-01T00:20:30.173Z,102023.37
2019-06-01T00:23:01.102Z,102024.91
2019-06-01T00:25:32.110Z,102014.86
2019-06-01T00:28:03.250Z,102019.40
2019-06-01T00:30:34.240Z,102022.38
2019-06-01T00:33:05.284Z,102016.99
2019-06-01T00:35:36.297Z,102018.24
2019-06-01T00:38:07.342Z,102024.36
2019-06-01T00:40:38.274Z,102016.95
2019-06-01T00:43:09.203Z,102024.02
2019-06-01T00:45:40.606Z,102022.95
2019-06-01T00:48:11.692Z,102018.67
2019-06-01T00:50:43.139Z,102024.05
2019-06-01T00:53:14.385Z,102019.83
2019-06-01T00:55:47.362Z,102020.86
2019-06-01T00:58:18.399Z,102019.20
2019-06-01T01:00:51.099Z,102020.71
2019-06-01T01:03:22.319Z,102023.64
2019-06-01T01:05:53.287Z,102025.20
2019-06-01T01:08:24.551Z,102023.37
2019-06-01T01:10:55.502Z,102026.95
2019-06-01T01:13:27.069Z,102025.26
2019-06-01T01:15:58.193Z,102030.80
2019-06-01T01:18:30.061Z,102028.13
2019-06-01T01:21:01.071Z,102030.59
2019-06-01T01:23:32.016Z,102029.14
2019-06-01T01:26:03.534Z,102023.08
2019-06-01T01:28:34.609Z,102023.76
2019-06-01T01:31:13.415Z,102023.37
2019-06-01T01:33:38.379Z,102018.80
2019-06-01T01:36:09.392Z,102020.09
2019-06-01T01:38:40.639Z,102025.95
2019-06-01T01:41:11.519Z,102020.04
2019-06-01T01:43:42.686Z,102023.44
2019-06-01T01:46:13.703Z,102023.22
2019-06-01T01:48:44.719Z,102026.20
2019-06-01T01:51:15.619Z,102028.19
2019-06-01T01:53:46.664Z,102023.22
2019-06-01T01:56:17.624Z,102018.25
2019-06-01T01:58:48.687Z,102017.98
2019-06-01T02:01:22.850Z,102015.43
2019-06-01T02:03:53.670Z,102012.70
2019-06-01T02:06:28.956Z,102015.88
2019-06-01T02:08:59.343Z,102013.88
2019-06-01T02:11:30.412Z,102010.83
2019-06-01T02:14:02.121Z,102012.66
2019-06-01T02:16:33.384Z,102013.41
2019-06-01T02:19:04.420Z,102007.86
2019-06-01T02:21:35.310Z,102011.38
2019-06-01T02:24:06.370Z,102005.94
2019-06-01T02:26:37.465Z,102009.27
2019-06-01T02:29:08.411Z,102008.17
2019-06-01T02:31:42.385Z,102014.68
2019-06-01T02:34:12.391Z,102011.08
2019-06-01T02:36:43.250Z,102002.41
2019-06-01T02:39:15.180Z,102006.81
2019-06-01T02:41:46.292Z,102009.33
2019-06-01T02:44:17.311Z,102000.18
2019-06-01T02:46:48.233Z,101999.09
2019-06-01T02:49:19.146Z,102002.70
2019-06-01T02:51:50.034Z,101989.78
2019-06-01T02:54:21.168Z,101992.75
2019-06-01T02:56:52.309Z,101997.08
2019-06-01T02:59:23.351Z,101993.78
2019-06-01T03:01:58.205Z,101994.50
2019-06-01T03:04:28.208Z,102005.08
2019-06-01T03:06:59.594Z,102008.84
2019-06-01T03:09:32.599Z,102007.15
2019-06-01T03:12:04.369Z,102007.62
2019-06-01T03:14:37.933Z,102010.99
2019-06-01T03:17:12.655Z,102005.20
2019-06-01T03:19:47.434Z,102012.07
2019-06-01T03:22:21.434Z,102010.52
2019-06-01T03:24:56.217Z,102009.59
2019-06-01T03:27:28.923Z,102012.16
2019-06-01T03:30:05.806Z,102010.34
2019-06-01T03:32:37.507Z,102009.81
2019-06-01T03:35:10.737Z,102009.16
2019-06-01T03:37:41.741Z,102011.67
2019-06-01T03:40:23.143Z,102008.25
2019-06-01T03:42:45.914Z,102004.70
2019-06-01T03:45:17.046Z,102008.08
2019-06-01T03:47:48.082Z,102001.53
2019-06-01T03:50:19.015Z,102008.09
2019-06-01T03:52:50.120Z,101999.94
2019-06-01T03:55:21.034Z,102003.03
2019-06-01T03:57:52.047Z,102002.59
2019-06-01T04:00:23.091Z,102002.19
2019-06-01T04:02:53.993Z,102003.15
2019-06-01T04:05:25.055Z,102003.62
2019-06-01T04:07:56.105Z,101995.41
2019-06-01T04:10:27.155Z,102000.98
2019-06-01T04:12:58.275Z,102017.92
2019-06-01T04:15:29.416Z,102004.47
2019-06-01T04:18:01.845Z,102011.80
2019-06-01T04:20:33.020Z,102010.48
2019-06-01T04:23:04.570Z,102009.86
2019-06-01T04:25:35.911Z,102012.17
2019-06-01T04:28:14.405Z,102003.30
2019-06-01T04:30:45.214Z,102002.83
2019-06-01T04:33:16.258Z,102006.91
2019-06-01T04:35:47.299Z,102006.97
2019-06-01T04:38:18.193Z,102006.37
2019-06-01T04:40:49.152Z,101998.55
2019-06-01T04:43:20.113Z,101996.66
2019-06-01T04:45:51.035Z,102002.78
2019-06-01T04:48:22.038Z,102016.02
2019-06-01T04:50:53.321Z,101996.18
2019-06-01T04:53:24.418Z,101998.63
2019-06-01T04:55:55.556Z,101998.01
2019-06-01T04:58:26.544Z,101999.63
2019-06-01T05:00:57.479Z,102003.41
2019-06-01T05:03:28.489Z,102002.48
2019-06-01T05:05:59.634Z,102001.30
2019-06-01T05:08:30.527Z,102000.66
2019-06-01T05:11:05.078Z,102002.23
2019-06-01T05:13:34.271Z,102000.55
2019-06-01T05:16:05.900Z,101998.73
2019-06-01T05:18:37.002Z,101996.70
2019-06-01T05:21:08.465Z,101992.41
2019-06-01T05:23:39.423Z,101997.61
2019-06-01T05:26:10.948Z,102011.48
2019-06-01T05:28:42.043Z,102010.48
2019-06-01T05:31:20.448Z,102008.99
2019-06-01T05:33:45.791Z,102013.94
2019-06-01T05:36:16.770Z,102005.00
2019-06-01T05:38:47.715Z,102009.13
2019-06-01T05:41:19.923Z,102002.98
2019-06-01T05:43:50.978Z,102002.45
2019-06-01T05:46:22.329Z,101997.73
2019-06-01T05:48:53.327Z,102006.00
2019-06-01T05:51:24.247Z,102001.72
2019-06-01T05:53:55.159Z,101999.33
2019-06-01T05:56:26.198Z,102006.56
2019-06-01T05:58:57.310Z,102004.31
2019-06-01T06:01:28.239Z,102008.89
2019-06-01T06:03:59.143Z,102003.57
2019-06-01T06:06:30.099Z,102005.56
2019-06-01T06:09:01.086Z,102002.27
2019-06-01T06:11:32.036Z,102006.19
2019-06-01T06:14:03.533Z,101999.42
2019-06-01T06:16:34.471Z,102005.72
2019-06-01T06:19:05.497Z,101996.73
2019-06-01T06:21:36.422Z,102003.48
2019-06-01T06:24:07.327Z,101996.78
2019-06-01T06:26:38.263Z,102003.44
2019-06-01T06:29:09.164Z,101998.95
2019-06-01T06:31:40.115Z,101998.62
2019-06-01T06:34:11.019Z,102004.66
2019-06-01T06:36:41.904Z,102003.67
2019-06-01T06:39:13.655Z,101998.05
2019-06-01T06:41:44.878Z,101990.59
2019-06-01T06:44:16.378Z,101998.78
2019-06-01T06:46:47.561Z,101991.70
2019-06-01T06:49:19.174Z,101995.59
2019-06-01T06:51:50.377Z,101990.03
2019-06-01T06:54:21.865Z,102000.28
2019-06-01T06:56:52.784Z,101995.77
2019-06-01T06:59:24.597Z,101988.73
2019-06-01T07:01:55.632Z,101992.70
2019-06-01T07:04:27.491Z,101991.12
2019-06-01T07:06:58.652Z,101980.28
2019-06-01T07:09:29.509Z,101977.20
2019-06-01T07:12:00.441Z,101967.88
2019-06-01T07:14:31.770Z,101972.49
2019-06-01T07:17:03.050Z,101968.38
2019-06-01T07:19:34.114Z,101978.52
2019-06-01T07:22:05.015Z,101966.48
2019-06-01T07:24:36.232Z,101974.35
2019-06-01T07:27:07.056Z,101973.64
2019-06-01T07:29:38.025Z,101964.50
2019-06-01T07:32:09.151Z,101969.91
2019-06-01T07:34:42.782Z,101974.73
2019-06-01T07:37:13.041Z,101967.70
2019-06-01T07:39:43.965Z,101978.69
2019-06-01T07:42:14.976Z,101979.95
2019-06-01T07:44:45.998Z,101977.00
2019-06-01T07:47:16.881Z,101985.93
2019-06-01T07:49:47.879Z,101987.09
2019-06-01T07:52:20.154Z,101981.70
2019-06-01T07:54:51.287Z,101979.73
2019-06-01T07:57:23.496Z,101978.30
2019-06-01T07:59:54.718Z,101984.27
2019-06-01T08:02:27.872Z,101980.61
2019-06-01T08:04:58.515Z,101981.63
2019-06-01T08:07:29.467Z,101976.22
2019-06-01T08:10:00.658Z,101982.54
2019-06-01T08:12:31.679Z,101984.87
2019-06-01T08:15:06.040Z,101986.92
2019-06-01T08:17:37.055Z,101984.44
2019-06-01T08:20:08.136Z,101982.48
2019-06-01T08:22:39.056Z,101976.30
2019-06-01T08:25:10.021Z,101976.54
2019-06-01T08:27:44.526Z,101977.18
2019-06-01T08:30:16.017Z,101976.84
2019-06-01T08:32:46.923Z,101976.00
2019-06-01T08:35:17.880Z,101996.88
2019-06-01T08:37:48.815Z,101981.92
2019-06-01T08:40:19.748Z,101979.20
2019-06-01T08:42:50.774Z,101973.71
2019-06-01T08:45:21.712Z,101969.80
2019-06-01T08:47:52.672Z,101972.36
2019-06-01T08:50:23.824Z,101972.37
2019-06-01T08:52:54.844Z,101961.54
2019-06-01T08:55:26.069Z,101967.24
2019-06-01T08:57:57.239Z,101962.42
2019-06-01T09:00:28.461Z,101962.18
2019-06-01T09:02:59.735Z,101971.91
2019-06-01T09:05:31.528Z,101978.97
2019-06-01T09:08:02.893Z,101964.30
2019-06-01T09:10:35.431Z,101966.55
2019-06-01T09:13:06.766Z,101964.27
2019-06-01T09:15:37.900Z,101958.12
2019-06-01T09:18:08.811Z,101953.73
2019-06-01T09:20:39.857Z,101964.01
2019-06-01T09:23:11.029Z,101949.88
2019-06-01T09:25:42.190Z,101951.81
2019-06-01T09:28:13.121Z,101951.42
2019-06-01T09:30:44.039Z,101942.76
2019-06-01T09:33:15.127Z,101938.55
2019-06-01T09:35:55.469Z,101937.03
2019-06-01T09:38:19.126Z,101934.09
2019-06-01T09:40:50.296Z,101942.19
2019-06-01T09:43:21.231Z,101942.55
2019-06-01T09:45:53.217Z,101949.39
2019-06-01T09:48:24.629Z,101944.19
2019-06-01T09:50:55.578Z,101948.70
2019-06-01T09:53:28.661Z,101946.51
2019-06-01T09:55:59.567Z,101948.53
2019-06-01T09:58:30.438Z,101940.74
2019-06-01T10:01:01.477Z,101942.78
2019-06-01T10:03:32.582Z,101936.02
2019-06-01T10:06:03.889Z,101934.81
2019-06-01T10:08:36.029Z,101925.47
2019-06-01T10:11:07.384Z,101932.98
2019-06-01T10:15:21.568Z,101927.66
2019-06-01T10:16:19.061Z,101924.02
2019-06-01T10:18:50.040Z,101920.12
2019-06-01T10:21:21.193Z,101926.74
2019-06-01T10:23:52.250Z,101925.88
2019-06-01T10:26:23.373Z,101924.57
2019-06-01T10:28:54.332Z,101925.65
2019-06-01T10:31:25.239Z,101925.43
2019-06-01T10:33:56.219Z,101917.11
2019-06-01T10:36:27.048Z,101921.77
2019-06-01T10:38:58.020Z,101917.23
2019-06-01T10:41:28.847Z,101917.95
2019-06-01T10:44:00.132Z,101915.00
2019-06-01T10:46:31.791Z,101914.13
2019-06-01T10:49:03.295Z,101912.74
2019-06-01T10:51:34.218Z,101911.17
2019-06-01T10:54:05.167Z,101909.98
2019-06-01T10:56:36.365Z,101911.23
2019-06-01T10:59:07.355Z,101915.16
2019-06-01T11:01:38.901Z,101917.40
2019-06-01T11:04:10.195Z,101913.84
2019-06-01T11:06:47.723Z,101905.76
2019-06-01T11:09:14.276Z,101911.97
2019-06-01T11:11:45.324Z,101905.73
2019-06-01T11:14:16.346Z,101900.55
2019-06-01T11:16:52.719Z,101905.95
2019-06-01T11:19:20.446Z,101898.97
2019-06-01T11:21:51.505Z,101901.77
2019-06-01T11:24:22.370Z,101899.80
2019-06-01T11:26:53.321Z,101883.56
2019-06-01T11:29:24.140Z,101891.20
2019-06-01T11:31:55.142Z,101889.55
2019-06-01T11:34:26.111Z,101885.33
2019-06-01T11:37:05.078Z,101876.98
2019-06-01T11:39:30.012Z,101876.98
2019-06-01T11:42:00.977Z,101873.02
2019-06-01T11:44:31.898Z,101870.89
2019-06-01T11:47:02.968Z,101869.89
2019-06-01T11:49:34.715Z,101869.12
2019-06-01T11:52:05.764Z,101867.51
2019-06-01T11:54:37.092Z,101874.24
2019-06-01T11:57:08.160Z,101862.50
2019-06-01T11:59:39.418Z,101865.77
2019-06-01T12:02:10.971Z,101866.16
2019-06-01T12:04:42.023Z,101863.25
2019-06-01T12:07:17.679Z,101853.77
2019-06-01T12:09:46.095Z,101860.00
2019-06-01T12:12:17.191Z,101852.43
2019-06-01T12:14:48.147Z,101859.67
2019-06-01T12:17:19.087Z,101849.17
2019-06-01T12:19:49.929Z,101851.67
2019-06-01T12:22:20.959Z,101862.80
2019-06-01T12:24:51.881Z,101850.17
2019-06-01T12:27:22.739Z,101860.43
2019-06-01T12:29:53.719Z,101855.18
2019-06-01T12:32:24.654Z,101850.66
2019-06-01T12:34:55.662Z,101847.27
2019-06-01T12:37:45.495Z,101843.28
2019-06-01T12:39:59.440Z,101848.41
2019-06-01T12:42:30.433Z,101839.75
2019-06-01T12:45:02.243Z,101837.27
2019-06-01T12:47:33.494Z,101834.34
2019-06-01T12:50:07.811Z,101832.20
2019-06-01T12:52:40.024Z,101826.41
2019-06-01T12:55:11.797Z,101828.79
2019-06-01T12:57:42.971Z,101830.03
2019-06-01T13:00:15.968Z,101831.91
2019-06-01T13:02:56.475Z,101819.00
2019-06-01T13:05:20.093Z,101821.02
2019-06-01T13:08:01.505Z,101816.74
2019-06-01T13:10:24.199Z,101820.86
2019-06-01T13:12:55.135Z,101813.34
2019-06-01T13:15:26.174Z,101813.84
2019-06-01T13:17:57.248Z,101812.61
2019-06-01T13:20:28.393Z,101800.70
2019-06-01T13:22:59.446Z,101798.65
2019-06-01T13:25:30.449Z,101792.62
2019-06-01T13:28:01.493Z,101793.82
2019-06-01T13:30:32.470Z,101794.50
2019-06-01T13:33:03.692Z,101795.09
2019-06-01T13:35:34.840Z,101795.95
2019-06-01T13:38:12.253Z,101792.16
2019-06-01T13:40:38.838Z,101783.55
2019-06-01T13:43:09.867Z,101782.30
2019-06-01T13:45:41.179Z,101775.53
2019-06-01T13:48:12.089Z,101777.84
2019-06-01T13:50:43.536Z,101771.30
2019-06-01T13:53:14.698Z,101783.69
2019-06-01T13:55:46.103Z,101786.94
2019-06-01T13:58:17.349Z,101784.31
2019-06-01T14:00:48.446Z,101777.19
2019-06-01T14:03:19.480Z,101777.45
2019-06-01T14:05:50.960Z,101780.67
2019-06-01T14:08:29.132Z,101787.12
2019-06-01T14:10:55.532Z,101784.31
2019-06-01T14:13:26.665Z,101774.63
2019-06-01T14:15:57.697Z,101771.87
2019-06-01T14:18:28.737Z,101778.80
2019-06-01T14:20:59.637Z,101775.28
2019-06-01T14:23:30.639Z,101780.54
2019-06-01T14:26:01.697Z,101781.48
2019-06-01T14:28:32.739Z,101778.64
2019-06-01T14:31:03.749Z,101779.87
2019-06-01T14:33:34.768Z,101783.29
2019-06-01T14:36:05.895Z,101786.11
2019-06-01T14:38:46.664Z,101782.79
2019-06-01T14:41:09.861Z,101785.86
2019-06-01T14:43:40.991Z,101791.02
2019-06-01T14:46:12.151Z,101791.31
2019-06-01T14:48:43.054Z,101776.45
2019-06-01T14:51:14.206Z,101772.58
2019-06-01T14:53:45.122Z,101777.83
2019-06-01T14:56:16.287Z,101782.19
2019-06-01T14:58:47.818Z,101768.75
2019-06-01T15:01:31.798Z,101775.87
2019-06-01T15:03:52.309Z,101777.20
2019-06-01T15:06:23.390Z,101768.36
2019-06-01T15:09:10.571Z,101767.02
2019-06-01T15:11:27.394Z,101771.22
2019-06-01T15:13:58.607Z,101774.58
2019-06-01T15:16:29.779Z,101764.45
2019-06-01T15:19:01.873Z,101765.39
2019-06-01T15:21:33.372Z,101762.20
2019-06-01T15:24:04.479Z,101770.20
2019-06-01T15:26:35.401Z,101758.94
2019-06-01T15:29:06.346Z,101764.70
2019-06-01T15:31:37.376Z,101761.41
2019-06-01T15:34:08.541Z,101758.31
2019-06-01T15:36:39.440Z,101754.41
2019-06-01T15:39:24.330Z,101756.23
2019-06-01T15:41:43.218Z,101750.13
2019-06-01T15:44:14.288Z,101757.27
2019-06-01T15:46:45.306Z,101758.34
2019-06-01T15:49:16.382Z,101759.78
2019-06-01T15:51:47.281Z,101748.05
2019-06-01T15:54:18.304Z,101755.24
2019-06-01T15:56:52.117Z,101762.55
2019-06-01T15:59:23.251Z,101751.81
2019-06-01T16:01:54.968Z,101747.41
2019-06-01T16:04:26.151Z,101747.61
2019-06-01T16:06:57.250Z,101743.05
2019-06-01T16:09:42.292Z,101744.25
2019-06-01T16:12:02.150Z,101742.41
2019-06-01T16:14:33.189Z,101748.54
2019-06-01T16:17:04.758Z,101744.80
2019-06-01T16:19:35.973Z,101742.02
2019-06-01T16:22:07.073Z,101746.59
2019-06-01T16:24:38.088Z,101735.91
2019-06-01T16:27:09.300Z,101726.62
2019-06-01T16:29:40.340Z,101730.20
2019-06-01T16:32:11.415Z,101734.50
2019-06-01T16:34:42.480Z,101736.48
2019-06-01T16:37:13.522Z,101738.49
2019-06-01T16:39:58.409Z,101735.44
2019-06-01T16:42:17.792Z,101737.76
2019-06-01T16:44:48.908Z,101742.65
2019-06-01T16:47:19.920Z,101751.91
2019-06-01T16:49:51.035Z,101747.37
2019-06-01T16:52:22.084Z,101751.89
2019-06-01T16:54:53.215Z,101737.09
2019-06-01T16:57:24.349Z,101734.58
2019-06-01T16:59:56.325Z,101742.77
2019-06-01T17:02:27.374Z,101734.98
2019-06-01T17:04:58.624Z,101733.39
2019-06-01T17:07:29.802Z,101736.22
2019-06-01T17:10:19.267Z,101735.53
2019-06-01T17:12:33.982Z,101732.64
2019-06-01T17:15:07.163Z,101739.50
2019-06-01T17:17:38.268Z,101749.03
2019-06-01T17:20:34.246Z,101755.48
2019-06-01T17:23:18.222Z,101765.41
2019-06-01T17:25:38.303Z,101751.84
2019-06-01T17:28:09.689Z,101753.42
2019-06-01T17:30:40.897Z,101753.41
2019-06-01T17:33:12.542Z,101756.21
2019-06-01T17:35:43.684Z,101752.02
2019-06-01T17:38:15.073Z,101754.16
2019-06-01T17:40:46.167Z,101760.95
2019-06-01T17:43:17.425Z,101761.63
2019-06-01T17:45:48.551Z,101761.53
2019-06-01T17:48:26.467Z,101770.84
2019-06-01T17:50:52.742Z,101763.41
2019-06-01T17:53:23.924Z,101763.23
2019-06-01T17:55:55.056Z,101773.40
2019-06-01T17:58:26.129Z,101773.97
2019-06-01T18:00:57.456Z,101772.98
2019-06-01T18:03:28.723Z,101771.67
2019-06-01T18:05:59.831Z,101767.80
2019-06-01T18:08:30.999Z,101762.81
2019-06-01T18:11:02.125Z,101761.23
2019-06-01T18:13:33.395Z,101769.90
2019-06-01T18:16:04.692Z,101767.56
2019-06-01T18:18:35.873Z,101768.86
2019-06-01T18:21:06.905Z,101767.89
2019-06-01T18:23:37.845Z,101765.73
2019-06-01T18:26:09.151Z,101765.74
2019-06-01T18:28:40.348Z,101775.78
2019-06-01T18:31:11.309Z,101766.70
2019-06-01T18:33:42.613Z,101779.80
2019-06-01T18:36:13.957Z,101771.91
2019-06-01T18:38:45.073Z,101772.11
2019-06-01T18:41:19.837Z,101775.05
2019-06-01T18:43:49.215Z,101778.27
2019-06-01T18:46:20.150Z,101779.00
2019-06-01T18:48:51.231Z,101772.20
2019-06-01T18:51:22.193Z,101770.19
2019-06-01T18:53:53.263Z,101766.67
2019-06-01T18:56:24.083Z,101774.90
2019-06-01T18:58:55.154Z,101781.19
2019-06-01T19:01:27.101Z,101776.33
2019-06-01T19:03:58.152Z,101785.55
2019-06-01T19:06:29.159Z,101779.67
2019-06-01T19:09:02.786Z,101794.84
2019-06-01T19:11:36.114Z,101783.72
2019-06-01T19:14:07.880Z,101782.42
2019-06-01T19:16:40.025Z,101787.58
2019-06-01T19:19:12.517Z,101788.83
2019-06-01T19:21:43.566Z,101795.77
2019-06-01T19:24:14.716Z,101799.08
2019-06-01T19:26:45.993Z,101797.78
2019-06-01T19:29:17.002Z,101803.33
2019-06-01T19:31:48.253Z,101807.97
2019-06-01T19:34:19.225Z,101799.45
2019-06-01T19:36:52.177Z,101798.66
2019-06-01T19:39:23.664Z,101800.83
2019-06-01T19:41:58.154Z,101812.20
2019-06-01T19:44:28.391Z,101810.02
2019-06-01T19:46:59.507Z,101809.98
2019-06-01T19:49:30.571Z,101814.94
2019-06-01T19:52:01.475Z,101816.33
2019-06-01T19:54:32.725Z,101821.73
2019-06-01T19:57:03.849Z,101818.98
2019-06-01T19:59:34.698Z,101818.45
2019-06-01T20:02:22.561Z,101817.91
2019-06-01T20:04:38.695Z,101821.79
2019-06-01T20:07:11.000Z,101810.92
2019-06-01T20:09:42.261Z,101812.00
2019-06-01T20:12:16.347Z,101817.80
2019-06-01T20:14:46.988Z,101812.67
2019-06-01T20:17:17.921Z,101815.77
2019-06-01T20:19:49.017Z,101807.52
2019-06-01T20:22:21.401Z,101814.59
2019-06-01T20:24:52.327Z,101808.11
2019-06-01T20:27:23.535Z,101804.27
2019-06-01T20:29:54.476Z,101801.95
2019-06-01T20:32:25.549Z,101810.38
2019-06-01T20:34:56.567Z,101814.14
2019-06-01T20:37:27.607Z,101810.78
2019-06-01T20:39:58.627Z,101810.07
2019-06-01T20:42:32.222Z,101812.94
2019-06-01T20:45:04.758Z,101820.48
2019-06-01T20:47:35.866Z,101824.82
2019-06-01T20:50:07.990Z,101826.42
2019-06-01T20:52:38.865Z,101820.81
2019-06-01T20:55:10.310Z,101819.59
2019-06-01T20:57:41.306Z,101825.66
2019-06-01T21:00:13.628Z,101816.78
2019-06-01T21:02:44.760Z,101812.94
2019-06-01T21:05:15.904Z,101812.13
2019-06-01T21:07:47.011Z,101815.97
2019-06-01T21:10:20.496Z,101816.62
2019-06-01T21:12:51.595Z,101814.03
2019-06-01T21:15:23.402Z,101813.22
2019-06-01T21:17:54.443Z,101818.36
2019-06-01T21:20:29.835Z,101813.08
2019-06-01T21:22:58.637Z,101816.28
2019-06-01T21:25:29.778Z,101812.81
2019-06-01T21:28:00.666Z,101811.62
2019-06-01T21:30:31.715Z,101809.44
2019-06-01T21:33:02.837Z,101805.59
2019-06-01T21:35:33.684Z,101805.59
2019-06-01T21:38:05.074Z,101807.02
2019-06-01T21:40:36.274Z,101807.50
2019-06-01T21:43:23.510Z,101816.14
2019-06-01T21:45:40.180Z,101819.85
2019-06-01T21:48:11.277Z,101816.72
2019-06-01T21:50:42.423Z,101818.73
2019-06-01T21:53:13.620Z,101826.14
2019-06-01T21:55:44.524Z,101821.81
2019-06-01T21:58:16.464Z,101817.86
2019-06-01T22:00:48.283Z,101809.94
2019-06-01T22:03:20.960Z,101810.98
2019-06-01T22:05:52.628Z,101822.17
2019-06-01T22:08:23.808Z,101816.48
2019-06-01T22:10:54.746Z,101814.36
2019-06-01T22:13:27.143Z,101807.31
2019-06-01T22:15:58.633Z,101816.11
2019-06-01T22:18:29.672Z,101810.83
2019-06-01T22:21:00.697Z,101814.25
2019-06-01T22:23:31.841Z,101811.76
2019-06-01T22:26:03.371Z,101811.98
2019-06-01T22:28:36.222Z,101811.32
2019-06-01T22:31:07.321Z,101809.77
2019-06-01T22:33:38.502Z,101811.36
2019-06-01T22:36:09.496Z,101807.55
2019-06-01T22:38:40.529Z,101810.14
2019-06-01T22:41:11.522Z,101814.97
2019-06-01T22:43:46.880Z,101806.66
2019-06-01T22:46:15.398Z,101811.90
2019-06-01T22:48:46.449Z,101805.38
2019-06-01T22:51:17.442Z,101802.37
2019-06-01T22:53:48.443Z,101804.30
2019-06-01T22:56:19.453Z,101794.91
2019-06-01T22:58:51.677Z,101802.64
2019-06-01T23:01:22.908Z,101813.13
2019-06-01T23:03:54.024Z,101799.55
2019-06-01T23:06:24.992Z,101800.75
2019-06-01T23:08:55.986Z,101801.98
2019-06-01T23:11:27.539Z,101803.13
2019-06-01T23:13:58.719Z,101802.56
2019-06-01T23:16:29.821Z,101801.88
2019-06-01T23:19:00.888Z,101801.82
2019-06-01T23:21:32.084Z,101806.31
2019-06-01T23:24:03.301Z,101810.64
2019-06-01T23:26:34.138Z,101804.20
2019-06-01T23:29:05.315Z,101804.45
2019-06-01T23:31:36.208Z,101815.17
2019-06-01T23:34:07.141Z,101805.06
2019-06-01T23:36:38.245Z,101799.15
2019-06-01T23:39:09.282Z,101796.33
2019-06-01T23:41:40.389Z,101800.83
2019-06-01T23:44:12.660Z,101785.46
2019-06-01T23:46:44.185Z,101785.14
2019-06-01T23:49:15.219Z,101783.44
2019-06-01T23:51:46.238Z,101779.52
2019-06-01T23:54:20.023Z,101785.48
2019-06-01T23:56:51.030Z,101774.99
2019-06-01T23:59:21.959Z,101780.65
